createdAt,value
2022-08-17T05:05:54.951Z,20.08
2022-08-17T05:08:41.817Z,20.06
2022-08-17T05:11:29.454Z,20.07
2022-08-17T05:18:19.093Z,20.09
2022-08-17T05:21:06.796Z,20.08
2022-08-17T05:23:56.283Z,20.06
2022-08-17T05:26:43.712Z,20.07
2022-08-17T05:29:35.087Z,20.05
2022-08-17T05:32:37.773Z,20.03
2022-08-17T05:35:30.342Z,20.03
2022-08-17T05:38:19.041Z,20.00
2022-08-17T05:41:07.546Z,20.01
2022-08-17T05:43:56.533Z,19.98
2022-08-17T05:46:48.346Z,19.98
2022-08-17T05:49:35.781Z,19.95
2022-08-17T05:52:48.058Z,19.91
2022-08-17T05:55:47.792Z,19.90
2022-08-17T05:59:12.523Z,19.87
2022-08-17T06:02:08.282Z,19.86
2022-08-17T06:05:05.181Z,19.86
2022-08-17T06:08:37.183Z,19.85
2022-08-17T06:12:01.685Z,19.87
2022-08-17T06:15:19.478Z,19.90
2022-08-17T06:18:09.261Z,19.91
2022-08-17T06:21:02.743Z,19.94
2022-08-17T06:23:53.145Z,19.97
2022-08-17T06:26:45.401Z,19.99
2022-08-17T06:29:41.765Z,20.02
2022-08-17T06:32:28.663Z,20.07
2022-08-17T06:35:21.934Z,20.12
2022-08-17T06:38:38.110Z,20.17
2022-08-17T06:42:02.693Z,20.26
2022-08-17T06:45:23.880Z,20.30
2022-08-17T06:48:25.779Z,20.34
2022-08-17T06:51:28.401Z,20.40
2022-08-17T06:54:27.108Z,20.47
2022-08-17T06:57:19.918Z,20.53
2022-08-17T07:00:13.501Z,20.62
2022-08-17T07:03:20.815Z,20.72
2022-08-17T07:06:24.106Z,20.80
2022-08-17T07:09:17.337Z,20.85
2022-08-17T07:12:15.890Z,20.91
2022-08-17T07:15:13.874Z,20.99
2022-08-17T07:18:00.972Z,21.11
2022-08-17T07:20:50.748Z,21.17
2022-08-17T07:23:53.122Z,21.25
2022-08-17T07:26:39.882Z,21.31
2022-08-17T07:29:27.046Z,21.40
2022-08-17T07:32:18.393Z,21.47
2022-08-17T07:35:37.900Z,21.57
2022-08-17T07:38:31.045Z,21.65
2022-08-17T07:41:20.076Z,21.75
2022-08-17T07:44:15.202Z,21.85
2022-08-17T07:47:34.014Z,22.00
2022-08-17T07:50:26.036Z,22.11
2022-08-17T07:53:25.781Z,22.22
2022-08-17T07:56:34.553Z,22.35
2022-08-17T07:59:29.420Z,22.47
2022-08-17T08:02:30.123Z,22.61
2022-08-17T08:05:48.647Z,22.80
2022-08-17T08:08:38.003Z,22.96
2022-08-17T08:11:32.523Z,23.02
2022-08-17T08:14:33.565Z,23.12
2022-08-17T08:17:26.256Z,23.25
2022-08-17T08:20:44.645Z,23.37
2022-08-17T08:23:50.681Z,23.49
2022-08-17T08:26:41.423Z,23.59
2022-08-17T08:29:32.529Z,23.68
2022-08-17T08:32:28.497Z,23.78
2022-08-17T08:35:30.929Z,23.94
2022-08-17T08:38:39.404Z,24.08
2022-08-17T08:41:35.162Z,24.19
2022-08-17T08:45:03.534Z,24.33
2022-08-17T08:47:54.011Z,24.48
2022-08-17T08:50:56.537Z,24.60
2022-08-17T08:54:14.668Z,24.74
2022-08-17T08:57:25.440Z,24.88
2022-08-17T09:00:25.574Z,25.07
2022-08-17T09:03:43.801Z,25.20
2022-08-17T09:07:11.548Z,25.32
2022-08-17T09:10:14.081Z,25.42
2022-08-17T09:13:24.163Z,25.52
2022-08-17T09:16:20.168Z,25.61
2022-08-17T09:19:17.381Z,25.74
2022-08-17T09:22:14.128Z,25.89
2022-08-17T09:25:15.921Z,26.02
2022-08-17T09:28:08.401Z,26.12
2022-08-17T09:31:05.876Z,26.27
2022-08-17T09:33:55.406Z,26.38
2022-08-17T09:37:35.778Z,26.52
2022-08-17T09:40:29.127Z,26.69
2022-08-17T09:43:34.268Z,26.82
2022-08-17T09:46:29.110Z,26.96
2022-08-17T09:49:29.455Z,27.04
2022-08-17T09:52:24.980Z,27.14
2022-08-17T09:55:11.984Z,27.21
2022-08-17T09:58:20.072Z,27.30
2022-08-17T10:01:36.684Z,27.41
2022-08-17T10:04:50.302Z,27.48
2022-08-17T10:07:44.284Z,27.63
2022-08-17T10:10:42.613Z,27.80
2022-08-17T10:14:02.020Z,27.99
2022-08-17T10:17:33.137Z,28.15
2022-08-17T10:20:27.694Z,28.33
2022-08-17T10:23:51.403Z,28.44
2022-08-17T10:26:56.112Z,28.53
2022-08-17T10:30:00.491Z,28.61
2022-08-17T10:33:00.309Z,28.70
2022-08-17T10:35:47.019Z,28.84
2022-08-17T10:38:46.168Z,28.95
2022-08-17T10:41:42.630Z,29.11
2022-08-17T10:45:06.277Z,29.27
2022-08-17T10:48:05.297Z,29.37
2022-08-17T10:50:55.818Z,29.46
2022-08-17T10:53:43.347Z,29.54
2022-08-17T10:56:51.131Z,29.63
2022-08-17T10:59:37.814Z,29.71
2022-08-17T11:02:51.510Z,29.83
2022-08-17T11:06:13.077Z,29.93
2022-08-17T11:09:26.193Z,30.00
2022-08-17T11:12:20.063Z,30.05
2022-08-17T11:15:31.292Z,30.11
2022-08-17T11:18:29.786Z,30.17
2022-08-17T11:21:24.442Z,30.25
2022-08-17T11:24:33.343Z,30.39
2022-08-17T11:27:30.096Z,30.55
2022-08-17T11:30:44.501Z,30.63
2022-08-17T11:33:32.013Z,30.68
2022-08-17T11:36:37.633Z,30.75
2022-08-17T11:39:31.056Z,30.88
2022-08-17T11:42:53.154Z,31.04
2022-08-17T11:45:55.235Z,31.09
2022-08-17T11:49:18.627Z,31.18
2022-08-17T11:52:08.445Z,31.24
2022-08-17T11:55:03.635Z,31.29
2022-08-17T11:58:26.374Z,31.44
2022-08-17T12:01:33.151Z,31.60
2022-08-17T12:04:30.730Z,31.68
2022-08-17T12:07:23.104Z,31.79
2022-08-17T12:10:12.300Z,31.91
2022-08-17T12:13:11.074Z,31.96
2022-08-17T12:15:58.150Z,32.00
2022-08-17T12:18:54.567Z,32.07
2022-08-17T12:21:54.161Z,32.11
2022-08-17T12:24:50.459Z,32.20
2022-08-17T12:28:04.883Z,32.27
2022-08-17T12:30:54.117Z,32.31
2022-08-17T12:33:45.446Z,32.35
2022-08-17T12:36:32.680Z,32.41
2022-08-17T12:39:24.944Z,32.42
2022-08-17T12:42:25.582Z,32.48
2022-08-17T12:45:41.847Z,32.55
2022-08-17T12:48:31.857Z,32.60
2022-08-17T12:51:18.653Z,32.65
2022-08-17T12:54:05.557Z,32.68
2022-08-17T12:56:52.437Z,32.68
2022-08-17T12:59:46.556Z,32.71
2022-08-17T13:02:43.662Z,32.76
2022-08-17T13:05:35.916Z,32.77
2022-08-17T13:08:36.051Z,32.79
2022-08-17T13:11:26.043Z,32.79
2022-08-17T13:14:12.955Z,32.80
2022-08-17T13:17:01.193Z,32.83
2022-08-17T13:19:49.602Z,32.84
2022-08-17T13:22:36.481Z,32.86
2022-08-17T13:25:23.627Z,32.89
2022-08-17T13:28:18.231Z,32.92
2022-08-17T13:31:24.147Z,32.96
2022-08-17T13:34:26.867Z,33.01
2022-08-17T13:37:27.114Z,33.07
2022-08-17T13:40:14.894Z,33.14
2022-08-17T13:43:04.079Z,33.18
2022-08-17T13:45:52.223Z,33.23
2022-08-17T13:48:39.125Z,33.26
2022-08-17T13:51:31.633Z,33.26
2022-08-17T13:54:34.199Z,33.31
2022-08-17T13:57:23.806Z,33.38
2022-08-17T14:00:36.705Z,33.43
2022-08-17T14:03:24.694Z,33.46
2022-08-17T14:06:11.512Z,33.54
2022-08-17T14:09:09.096Z,33.69
2022-08-17T14:11:56.959Z,33.82
2022-08-17T14:14:44.035Z,33.92
2022-08-17T14:17:35.048Z,34.01
2022-08-17T14:20:25.025Z,34.14
2022-08-17T14:23:11.893Z,34.22
2022-08-17T14:25:58.728Z,34.34
2022-08-17T14:28:54.511Z,34.41
2022-08-17T14:31:48.625Z,34.46
2022-08-17T14:34:41.007Z,34.53
2022-08-17T14:37:28.915Z,34.58
2022-08-17T14:40:16.690Z,34.64
2022-08-17T14:43:03.893Z,34.69
2022-08-17T14:45:51.728Z,34.73
2022-08-17T14:48:40.533Z,34.79
2022-08-17T14:51:29.820Z,34.82
2022-08-17T14:54:33.147Z,34.85
2022-08-17T14:57:33.424Z,34.89
2022-08-17T15:00:21.280Z,34.90
2022-08-17T15:03:08.096Z,34.95
2022-08-17T15:05:55.238Z,34.96
2022-08-17T15:08:42.799Z,34.98
2022-08-17T15:11:30.879Z,34.97
2022-08-17T15:14:17.669Z,34.98
2022-08-17T15:17:04.468Z,34.96
2022-08-17T15:19:51.663Z,34.96
2022-08-17T15:22:40.806Z,34.88
2022-08-17T15:25:29.621Z,34.81
2022-08-17T15:28:17.101Z,34.79
2022-08-17T15:31:05.686Z,34.81
2022-08-17T15:33:52.993Z,34.84
2022-08-17T15:36:40.669Z,34.79
2022-08-17T15:39:36.086Z,34.77
2022-08-17T15:42:23.602Z,34.73
2022-08-17T15:45:13.416Z,34.69
2022-08-17T15:48:00.272Z,34.64
2022-08-17T15:50:47.040Z,34.59
2022-08-17T15:53:34.164Z,34.53
2022-08-17T15:56:21.295Z,34.49
2022-08-17T15:59:08.196Z,34.45
2022-08-17T16:03:13.894Z,34.40
2022-08-17T16:05:10.215Z,34.34
2022-08-17T16:07:57.188Z,34.31
2022-08-17T16:10:44.072Z,34.28
2022-08-17T16:13:31.614Z,34.23
2022-08-17T16:16:18.376Z,34.18
2022-08-17T16:19:05.141Z,34.15
2022-08-17T16:21:51.941Z,34.12
2022-08-17T16:24:47.364Z,34.08
2022-08-17T16:27:44.871Z,34.09
2022-08-17T16:30:35.316Z,34.07
2022-08-17T16:33:22.319Z,34.04
2022-08-17T16:36:09.370Z,34.01
2022-08-17T16:38:57.005Z,33.98
2022-08-17T16:41:46.647Z,33.93
2022-08-17T16:44:33.468Z,33.87
2022-08-17T16:47:20.575Z,33.83
2022-08-17T16:50:09.758Z,33.75
2022-08-17T16:53:06.399Z,33.72
2022-08-17T16:55:53.201Z,33.67
2022-08-17T16:58:40.932Z,33.61
2022-08-17T17:01:29.774Z,33.57
2022-08-17T17:04:17.333Z,33.50
2022-08-17T17:07:15.105Z,33.47
2022-08-17T17:10:05.938Z,33.42
2022-08-17T17:13:02.898Z,33.37
2022-08-17T17:16:01.492Z,33.40
2022-08-17T17:18:56.433Z,33.43
2022-08-17T17:22:12.963Z,33.45
2022-08-17T17:25:21.096Z,33.41
2022-08-17T17:28:26.726Z,33.41
2022-08-17T17:31:23.685Z,33.41
2022-08-17T17:34:13.676Z,33.38
2022-08-17T17:37:06.497Z,33.37
2022-08-17T17:39:56.653Z,33.36
2022-08-17T17:42:44.396Z,33.36
2022-08-17T17:45:38.441Z,33.35
2022-08-17T17:48:26.783Z,33.35
2022-08-17T17:52:03.650Z,33.34
2022-08-17T17:54:52.167Z,33.30
2022-08-17T17:58:10.160Z,33.28
2022-08-17T18:01:22.066Z,33.25
2022-08-17T18:04:21.311Z,33.22
2022-08-17T18:07:42.599Z,33.18
2022-08-17T18:10:39.123Z,33.12
2022-08-17T18:13:45.043Z,33.08
2022-08-17T18:16:34.963Z,33.04
2022-08-17T18:19:25.371Z,33.02
2022-08-17T18:22:15.269Z,32.98
2022-08-17T18:25:04.841Z,32.93
2022-08-17T18:27:51.931Z,32.91
2022-08-17T18:30:38.847Z,32.86
2022-08-17T18:33:26.799Z,32.82
2022-08-17T18:36:27.731Z,32.77
2022-08-17T18:39:17.344Z,32.73
2022-08-17T18:42:06.861Z,32.69
2022-08-17T18:44:59.951Z,32.65
2022-08-17T18:47:55.256Z,32.59
2022-08-17T18:50:45.279Z,32.55
2022-08-17T18:53:34.113Z,32.51
2022-08-17T18:56:33.292Z,32.47
2022-08-17T18:59:42.121Z,32.42
2022-08-17T19:02:45.836Z,32.36
2022-08-17T19:05:39.735Z,32.30
2022-08-17T19:08:32.382Z,32.25
2022-08-17T19:11:30.292Z,32.17
2022-08-17T19:14:18.554Z,32.13
2022-08-17T19:17:19.213Z,32.07
2022-08-17T19:20:24.429Z,32.01
2022-08-17T19:23:16.738Z,31.95
2022-08-17T19:26:05.858Z,31.88
2022-08-17T19:29:18.904Z,31.81
2022-08-17T19:32:08.925Z,31.75
2022-08-17T19:35:03.545Z,31.68
2022-08-17T19:38:31.589Z,31.61
2022-08-17T19:41:32.982Z,31.55
2022-08-17T19:44:35.070Z,31.50
2022-08-17T19:47:53.847Z,31.44
2022-08-17T19:50:51.341Z,31.39
2022-08-17T19:54:04.941Z,31.31
2022-08-17T19:57:02.814Z,31.25
2022-08-17T20:00:05.449Z,31.20
2022-08-17T21:24:15.140Z,29.80
2022-08-17T21:28:30.009Z,29.71
2022-08-17T21:40:09.068Z,29.46
2022-08-17T22:01:06.373Z,29.16
2022-08-17T22:16:48.267Z,28.96
2022-08-17T22:36:14.603Z,28.68
2022-08-17T22:56:16.580Z,28.38
2022-08-17T23:05:48.063Z,28.34
2022-08-17T23:08:08.172Z,28.25
2022-08-17T23:19:22.365Z,28.14
2022-08-17T23:23:03.807Z,28.16
2022-08-17T23:26:56.295Z,28.12
2022-08-17T23:34:19.013Z,27.95
2022-08-17T23:37:48.929Z,27.96
2022-08-17T23:41:57.930Z,27.94
2022-08-17T23:45:25.558Z,27.83
2022-08-17T23:49:19.757Z,27.80
